Time;durP1;ratioP1;P1;durP2;ratioP2;P2;SDS_P1;SDS_P2;PMS_P1;PMS_P2;Temp;Humidity;BMP_temperature;BMP_pressure;BME280_temperature;BME280_humidity;BME280_pressure;Samples;Min_cycle;Max_cycle;Signal;HPM_P1;HPM_P2
2022/08/24 00:01:22;;;;;;;5.22;2.40;;;21.80;94.00;;;;;;5034483;28;20029;-82
2022/08/24 00:03:48;;;;;;;6.85;2.22;;;21.80;94.00;;;;;;5052681;28;20043;-82
2022/08/24 00:06:18;;;;;;;4.97;2.28;;;21.90;94.00;;;;;;5052488;28;20100;-82
2022/08/24 00:08:46;;;;;;;5.28;2.65;;;21.80;94.00;;;;;;5052099;28;20053;-82
2022/08/24 00:11:11;;;;;;;6.17;2.53;;;21.90;94.00;;;;;;5052312;28;20025;-83
2022/08/24 00:13:37;;;;;;;5.72;2.78;;;21.80;94.10;;;;;;5052248;28;20098;-82
2022/08/24 00:16:05;;;;;;;6.85;2.38;;;21.80;94.00;;;;;;5052026;28;20040;-82
2022/08/24 00:18:32;;;;;;;6.60;2.80;;;21.80;94.00;;;;;;5050743;28;20051;-82
2022/08/24 00:20:58;;;;;;;5.07;2.20;;;21.70;94.00;;;;;;5050993;28;20040;-83
2022/08/24 00:23:24;;;;;;;4.18;2.45;;;21.70;94.00;;;;;;5052046;28;20021;-82
2022/08/24 00:25:50;;;;;;;3.75;2.40;;;21.70;94.00;;;;;;5051891;28;20362;-82
2022/08/24 00:28:16;;;;;;;8.95;2.40;;;21.70;94.10;;;;;;5051979;28;20030;-83
2022/08/24 00:30:43;;;;;;;5.57;2.90;;;21.60;94.10;;;;;;5052010;28;20082;-82
2022/08/24 00:33:08;;;;;;;5.15;2.28;;;21.70;94.10;;;;;;5050565;28;20106;-82
2022/08/24 00:35:35;;;;;;;6.10;2.60;;;21.70;94.10;;;;;;5051828;28;20485;-82
2022/08/24 00:38:01;;;;;;;6.10;2.58;;;21.60;94.10;;;;;;5050457;28;20029;-82
2022/08/24 00:40:34;;;;;;;5.07;2.70;;;21.60;94.20;;;;;;5050207;28;20029;-82
2022/08/24 00:43:03;;;;;;;7.63;2.65;;;21.60;94.20;;;;;;5050325;28;20048;-82
2022/08/24 00:45:30;;;;;;;5.88;2.92;;;21.60;94.20;;;;;;5050324;28;20055;-82
2022/08/24 00:48:05;;;;;;;6.27;3.00;;;21.60;94.20;;;;;;5050128;28;20029;-82
2022/08/24 00:50:38;;;;;;;6.60;2.90;;;21.50;94.30;;;;;;5051236;28;20120;-82
2022/08/24 00:53:10;;;;;;;5.43;2.50;;;21.50;94.30;;;;;;5050123;28;20489;-82
2022/08/24 00:55:42;;;;;;;5.22;2.65;;;21.50;94.40;;;;;;5051251;28;20040;-82
2022/08/24 00:58:15;;;;;;;8.38;2.70;;;21.50;94.40;;;;;;5051435;28;20420;-82
2022/08/24 01:00:44;;;;;;;4.82;2.20;;;21.50;94.40;;;;;;5049811;28;20029;-82
2022/08/24 01:03:12;;;;;;;5.20;2.58;;;21.50;94.50;;;;;;5050152;28;20021;-82
2022/08/24 01:05:39;;;;;;;8.25;2.75;;;21.50;94.50;;;;;;5051114;28;20025;-82
2022/08/24 01:08:08;;;;;;;5.82;2.50;;;21.50;94.60;;;;;;5051198;28;20036;-82
2022/08/24 01:10:40;;;;;;;5.95;2.50;;;21.40;94.60;;;;;;5050934;28;20454;-82
2022/08/24 01:13:08;;;;;;;5.55;2.60;;;21.40;94.60;;;;;;5049747;28;20067;-82
2022/08/24 01:15:37;;;;;;;5.60;2.75;;;21.40;94.70;;;;;;5050083;28;20032;-82
2022/08/24 01:21:16;;;;;;;7.80;2.72;;;21.40;94.70;;;;;;5050218;28;20025;-82
2022/08/24 01:23:49;;;;;;;4.40;2.40;;;21.30;94.80;;;;;;5041275;28;20049;-82
2022/08/24 01:26:31;;;;;;;6.95;2.90;;;21.30;94.80;;;;;;5049480;28;20112;-82
2022/08/24 01:29:03;;;;;;;6.50;3.08;;;21.30;94.90;;;;;;5049298;28;20362;-82
2022/08/24 01:31:29;;;;;;;6.63;3.10;;;21.30;95.00;;;;;;5050845;28;20036;-82
2022/08/24 01:33:56;;;;;;;6.80;2.75;;;21.20;95.00;;;;;;5090707;22;20147;-78
2022/08/24 01:36:36;;;;;;;6.57;2.67;;;21.20;95.10;;;;;;5049315;28;20087;-78
2022/08/24 01:39:15;;;;;;;5.25;2.67;;;21.20;95.10;;;;;;5050659;28;20028;-78
2022/08/24 01:41:42;;;;;;;5.47;2.40;;;21.10;95.10;;;;;;5050574;28;20032;-78
2022/08/24 01:44:08;;;;;;;5.90;2.75;;;21.10;95.20;;;;;;5049360;28;20120;-78
2022/08/24 01:46:34;;;;;;;7.03;2.70;;;21.00;95.20;;;;;;5049187;28;20460;-78
2022/08/24 01:49:00;;;;;;;5.80;3.10;;;21.00;95.30;;;;;;5050594;28;20029;-78
2022/08/24 01:51:31;;;;;;;6.00;2.88;;;21.00;95.30;;;;;;5049288;28;20037;-78
2022/08/24 01:53:59;;;;;;;5.60;2.80;;;21.00;95.40;;;;;;5049294;28;20128;-78
2022/08/24 01:56:25;;;;;;;7.22;3.00;;;21.00;95.50;;;;;;5049092;28;20035;-78
2022/08/24 01:58:51;;;;;;;6.03;2.90;;;21.00;95.50;;;;;;5049030;28;20120;-78
2022/08/24 02:01:18;;;;;;;5.30;2.88;;;20.90;95.50;;;;;;5049146;28;20032;-78
2022/08/24 02:03:44;;;;;;;6.10;2.75;;;20.90;95.60;;;;;;5049291;28;20033;-78
2022/08/24 02:06:10;;;;;;;8.25;3.00;;;20.90;95.60;;;;;;5049211;28;20025;-78
2022/08/24 02:08:36;;;;;;;6.75;2.85;;;20.90;95.60;;;;;;5049016;28;20060;-78
2022/08/24 02:11:07;;;;;;;7.38;2.70;;;20.90;95.60;;;;;;5049028;28;20025;-78
2022/08/24 02:13:34;;;;;;;7.43;2.90;;;20.90;95.70;;;;;;5049260;28;20420;-78
2022/08/24 02:16:00;;;;;;;11.60;2.75;;;20.90;95.70;;;;;;5048908;28;20551;-78
2022/08/24 02:18:28;;;;;;;8.38;2.80;;;20.90;95.70;;;;;;5065709;28;20039;-78
2022/08/24 02:20:54;;;;;;;6.88;2.53;;;20.90;95.80;;;;;;5048814;28;20037;-78
2022/08/24 02:23:21;;;;;;;6.55;2.65;;;20.90;95.80;;;;;;5048840;28;20127;-78
2022/08/24 02:25:47;;;;;;;5.63;2.90;;;20.90;95.80;;;;;;5049117;28;20029;-78
2022/08/24 02:28:13;;;;;;;7.85;3.33;;;20.80;95.80;;;;;;5049000;28;20439;-78
2022/08/24 02:30:39;;;;;;;5.05;2.58;;;20.80;95.90;;;;;;5050167;28;20029;-78
2022/08/24 02:33:06;;;;;;;5.93;2.83;;;20.80;95.90;;;;;;5051767;28;20032;-78
2022/08/24 02:35:33;;;;;;;5.30;2.57;;;20.80;96.00;;;;;;5052781;28;20436;-78
2022/08/24 02:38:00;;;;;;;8.27;3.30;;;20.80;96.00;;;;;;5052505;28;20269;-78
2022/08/24 02:40:27;;;;;;;5.28;2.80;;;20.70;96.00;;;;;;5052339;28;20051;-78
2022/08/24 02:42:54;;;;;;;7.78;3.53;;;20.70;96.00;;;;;;5052841;28;20028;-78
2022/08/24 02:45:20;;;;;;;8.73;3.20;;;20.70;96.00;;;;;;5052721;28;20111;-77
2022/08/24 02:47:46;;;;;;;6.68;3.10;;;20.70;96.00;;;;;;5052556;28;20112;-78
2022/08/24 02:50:14;;;;;;;6.07;2.80;;;20.70;96.10;;;;;;5052122;28;20561;-78
2022/08/24 02:52:41;;;;;;;6.40;3.03;;;20.70;96.10;;;;;;5052308;28;20029;-78
2022/08/24 02:55:12;;;;;;;7.50;3.10;;;20.70;96.10;;;;;;5035923;28;20048;-78
2022/08/24 02:57:38;;;;;;;9.38;3.28;;;20.70;96.10;;;;;;5052174;28;20053;-78
2022/08/24 03:00:08;;;;;;;6.55;2.83;;;20.70;96.10;;;;;;5053390;28;20060;-78
2022/08/24 03:02:35;;;;;;;6.05;3.20;;;20.70;96.20;;;;;;5052267;28;20024;-78
2022/08/24 03:05:02;;;;;;;8.38;3.33;;;20.70;96.10;;;;;;5052120;28;20451;-78
2022/08/24 03:07:28;;;;;;;8.00;3.35;;;20.60;96.20;;;;;;5052015;28;20029;-78
2022/08/24 03:09:53;;;;;;;6.65;3.08;;;20.60;96.30;;;;;;5052011;28;20079;-78
2022/08/24 03:12:20;;;;;;;5.60;2.92;;;20.60;96.30;;;;;;5052035;28;20027;-78
2022/08/24 03:14:45;;;;;;;6.93;3.08;;;20.60;96.30;;;;;;5052029;28;20025;-78
2022/08/24 03:17:11;;;;;;;7.68;3.15;;;20.60;96.30;;;;;;5051849;28;20025;-78
2022/08/24 03:19:37;;;;;;;6.75;3.40;;;20.60;96.30;;;;;;5051748;28;20120;-78
2022/08/24 03:22:06;;;;;;;4.88;2.72;;;20.60;96.30;;;;;;5051856;28;20036;-78
2022/08/24 03:24:32;;;;;;;9.85;3.60;;;20.50;96.30;;;;;;5051805;28;20029;-77
2022/08/24 03:26:57;;;;;;;6.85;3.05;;;20.50;96.40;;;;;;5051721;28;20033;-78
2022/08/24 03:29:24;;;;;;;5.45;2.90;;;20.50;96.50;;;;;;5051733;28;20029;-78
2022/08/24 03:31:50;;;;;;;6.05;2.75;;;20.50;96.60;;;;;;5051709;28;20029;-78
2022/08/24 03:34:19;;;;;;;6.88;3.10;;;20.40;96.60;;;;;;5052819;28;20032;-78
2022/08/24 03:36:45;;;;;;;7.35;2.67;;;20.40;96.80;;;;;;5052877;28;20527;-78
2022/08/24 03:39:14;;;;;;;8.68;2.88;;;20.40;96.80;;;;;;5051330;28;20159;-78
2022/08/24 03:41:39;;;;;;;7.63;2.80;;;20.40;97.00;;;;;;5051432;28;20070;-78
2022/08/24 03:44:05;;;;;;;7.22;2.90;;;20.40;97.00;;;;;;5051160;28;20029;-77
2022/08/24 03:46:35;;;;;;;8.50;3.05;;;20.40;97.20;;;;;;5051377;28;20021;-78
2022/08/24 03:49:04;;;;;;;4.88;2.65;;;20.40;97.20;;;;;;5052549;28;20029;-78
2022/08/24 03:51:30;;;;;;;6.45;3.10;;;20.30;97.20;;;;;;5051408;28;20056;-78
2022/08/24 03:53:59;;;;;;;7.30;2.60;;;20.30;97.20;;;;;;5051531;28;20087;-78
2022/08/24 03:56:27;;;;;;;6.13;2.80;;;20.30;97.20;;;;;;5051233;28;20457;-78
2022/08/24 03:58:54;;;;;;;7.63;3.15;;;20.30;97.10;;;;;;5051047;28;20033;-78
2022/08/24 04:01:21;;;;;;;8.35;3.30;;;20.30;97.20;;;;;;5051024;28;20184;-78
2022/08/24 04:03:48;;;;;;;7.22;3.20;;;20.30;97.20;;;;;;5051165;28;20116;-78
2022/08/24 04:06:17;;;;;;;7.13;3.08;;;20.30;97.20;;;;;;5051095;28;20068;-78
2022/08/24 04:08:43;;;;;;;7.93;3.05;;;20.20;97.20;;;;;;5051041;28;20400;-78
2022/08/24 04:11:18;;;;;;;9.27;2.90;;;20.20;97.20;;;;;;5050895;28;20060;-78
2022/08/24 04:13:45;;;;;;;8.68;3.10;;;20.20;97.20;;;;;;5050834;28;20055;-77
2022/08/24 04:16:14;;;;;;;6.40;3.28;;;20.20;97.20;;;;;;5067665;28;20036;-78
2022/08/24 04:18:42;;;;;;;6.32;3.00;;;20.20;97.20;;;;;;5067429;28;20032;-78
2022/08/24 04:21:21;;;;;;;7.30;3.13;;;20.20;97.20;;;;;;5050756;28;20035;-78
2022/08/24 04:23:47;;;;;;;7.55;3.30;;;20.20;97.20;;;;;;5050716;28;20033;-78
2022/08/24 04:26:15;;;;;;;7.45;3.05;;;20.20;97.20;;;;;;5033910;28;20033;-78
2022/08/24 04:28:41;;;;;;;9.23;3.92;;;20.20;97.20;;;;;;5051887;28;20032;-78
2022/08/24 04:31:07;;;;;;;6.78;3.33;;;20.20;97.20;;;;;;5050878;28;20032;-78
2022/08/24 04:33:40;;;;;;;6.90;3.63;;;20.20;97.30;;;;;;5050400;28;20086;-78
2022/08/24 04:36:08;;;;;;;10.38;3.75;;;20.20;97.20;;;;;;5050424;28;20056;-78
2022/08/24 04:38:36;;;;;;;9.30;3.65;;;20.20;97.30;;;;;;5050359;28;20055;-80
2022/08/24 04:41:20;;;;;;;8.27;3.20;;;20.20;97.20;;;;;;5052816;28;20516;-78
2022/08/24 04:43:48;;;;;;;7.97;3.30;;;20.20;97.20;;;;;;5051834;28;20061;-78
2022/08/24 04:46:16;;;;;;;7.78;3.47;;;20.20;97.30;;;;;;5051788;28;20028;-78
2022/08/24 04:48:44;;;;;;;5.93;3.30;;;20.20;97.30;;;;;;5050138;28;20029;-77
2022/08/24 04:51:13;;;;;;;7.28;3.05;;;20.20;97.30;;;;;;5051444;28;20508;-78
2022/08/24 04:53:40;;;;;;;9.75;3.53;;;20.10;97.30;;;;;;5051616;28;20037;-78
2022/08/24 04:56:12;;;;;;;8.95;3.70;;;20.20;97.30;;;;;;5049245;28;20056;-77
2022/08/24 04:58:39;;;;;;;11.60;3.72;;;20.20;97.30;;;;;;5051431;28;20086;-78
2022/08/24 05:01:18;;;;;;;7.60;3.25;;;20.20;97.30;;;;;;5050182;28;20037;-78
2022/08/24 05:03:47;;;;;;;7.88;3.55;;;20.20;97.30;;;;;;5066586;28;20025;-78
2022/08/24 05:06:14;;;;;;;8.60;3.42;;;20.20;97.30;;;;;;5049896;28;20029;-78
2022/08/24 05:08:41;;;;;;;8.60;3.63;;;20.20;97.30;;;;;;5049739;28;20482;-78
2022/08/24 05:11:07;;;;;;;10.35;4.00;;;20.20;97.30;;;;;;5049898;28;20025;-78
2022/08/24 05:13:37;;;;;;;9.15;3.80;;;20.20;97.40;;;;;;5050116;28;20094;-78
2022/08/24 05:16:12;;;;;;;9.35;3.67;;;20.20;97.50;;;;;;5050856;28;20033;-78
2022/08/24 05:18:39;;;;;;;11.50;4.03;;;20.20;97.50;;;;;;5049629;28;20036;-78
2022/08/24 05:21:08;;;;;;;8.75;4.05;;;20.20;97.50;;;;;;5049833;28;20029;-78
2022/08/24 05:23:35;;;;;;;8.23;4.05;;;20.20;97.60;;;;;;5066364;28;20029;-78
2022/08/24 05:26:10;;;;;;;9.90;3.90;;;20.30;97.50;;;;;;5049625;28;20047;-78
2022/08/24 05:28:38;;;;;;;8.82;3.80;;;20.30;97.60;;;;;;5049600;28;20021;-79
2022/08/24 05:31:09;;;;;;;6.90;3.78;;;20.30;97.60;;;;;;5049497;28;20450;-79
2022/08/24 05:33:37;;;;;;;10.32;4.13;;;20.30;97.60;;;;;;5049536;28;20405;-79
2022/08/24 05:36:03;;;;;;;13.63;4.00;;;20.40;97.70;;;;;;5050635;28;20404;-79
2022/08/24 05:38:31;;;;;;;6.70;3.80;;;20.40;97.80;;;;;;5049435;28;20511;-79
2022/08/24 05:40:58;;;;;;;9.20;4.03;;;20.40;97.80;;;;;;5049406;28;20033;-79
2022/08/24 05:43:26;;;;;;;9.57;4.60;;;20.50;98.00;;;;;;5049459;28;20059;-79
2022/08/24 05:45:52;;;;;;;11.18;4.57;;;20.50;98.00;;;;;;5049246;28;20504;-79
2022/08/24 05:48:17;;;;;;;8.68;4.07;;;20.50;98.00;;;;;;5049502;28;20470;-79
2022/08/24 05:51:02;;;;;;;8.95;4.28;;;20.50;98.00;;;;;;5050676;28;20036;-79
2022/08/24 05:53:34;;;;;;;8.85;3.90;;;20.50;98.40;;;;;;5049301;28;20452;-80
2022/08/24 05:56:06;;;;;;;9.50;3.83;;;20.60;98.10;;;;;;5049129;28;20029;-79
2022/08/24 05:58:32;;;;;;;8.90;3.70;;;20.60;98.20;;;;;;5049039;28;20448;-79
2022/08/24 06:01:10;;;;;;;7.97;3.80;;;20.60;98.20;;;;;;5049095;28;20060;-79
2022/08/24 06:03:38;;;;;;;8.88;3.72;;;20.60;98.30;;;;;;5049209;28;20025;-79
2022/08/24 06:06:07;;;;;;;7.43;3.70;;;20.60;98.40;;;;;;5065699;28;20025;-79
2022/08/24 06:08:44;;;;;;;7.90;3.22;;;20.70;98.40;;;;;;5053220;28;20512;-79
2022/08/24 06:11:18;;;;;;;9.30;4.20;;;20.70;98.40;;;;;;5053722;28;20029;-79
2022/08/24 06:13:44;;;;;;;6.88;3.95;;;20.70;98.50;;;;;;5053212;28;20528;-79
2022/08/24 06:16:13;;;;;;;7.93;4.05;;;20.70;98.50;;;;;;5053026;28;20033;-79
2022/08/24 06:18:40;;;;;;;10.93;4.55;;;20.70;98.50;;;;;;5052831;28;20033;-79
2022/08/24 06:21:14;;;;;;;10.63;4.18;;;20.80;98.50;;;;;;5052934;28;20163;-79
2022/08/24 06:23:42;;;;;;;11.05;4.13;;;20.80;98.50;;;;;;5052978;28;20028;-79
2022/08/24 06:28:55;;;;;;;9.05;4.30;;;20.90;98.40;;;;;;5054563;28;19909;-79
2022/08/24 06:31:23;;;;;;;9.63;4.20;;;20.90;98.30;;;;;;5052920;28;20025;-80
2022/08/24 06:33:50;;;;;;;8.10;3.70;;;21.00;98.30;;;;;;5052724;28;20143;-80
2022/08/24 06:36:16;;;;;;;13.07;4.50;;;21.00;98.20;;;;;;5052860;28;20064;-80
2022/08/24 06:38:42;;;;;;;11.32;4.68;;;21.10;98.20;;;;;;5052662;28;20507;-79
2022/08/24 06:41:09;;;;;;;8.23;4.90;;;21.10;98.10;;;;;;5052691;28;20033;-80
2022/08/24 06:43:38;;;;;;;8.07;4.00;;;21.20;98.00;;;;;;5052495;28;20134;-80
2022/08/24 06:46:10;;;;;;;10.68;4.50;;;21.20;97.90;;;;;;5052569;28;20486;-79
2022/08/24 06:48:40;;;;;;;8.55;4.30;;;21.30;97.80;;;;;;5052515;28;20033;-80
2022/08/24 06:51:18;;;;;;;7.38;4.20;;;21.40;97.80;;;;;;5052604;28;20532;-80
2022/08/24 06:53:45;;;;;;;11.50;4.68;;;21.40;97.80;;;;;;5052502;28;20029;-79
2022/08/24 06:56:11;;;;;;;8.60;4.28;;;21.50;97.70;;;;;;5052334;28;20071;-80
2022/08/24 06:58:38;;;;;;;7.15;4.00;;;21.50;97.60;;;;;;5052220;28;20493;-80
2022/08/24 07:01:15;;;;;;;7.57;4.20;;;21.60;97.60;;;;;;5052313;28;20033;-80
2022/08/24 07:03:41;;;;;;;10.13;4.28;;;21.70;97.50;;;;;;5052172;28;20025;-80
2022/08/24 07:06:26;;;;;;;8.52;4.50;;;21.70;97.30;;;;;;5053352;28;20039;-80
2022/08/24 07:08:57;;;;;;;7.55;3.80;;;21.80;97.10;;;;;;5052045;28;20021;-80
2022/08/24 07:11:24;;;;;;;7.43;4.75;;;21.80;96.40;;;;;;5052251;28;20059;-80
2022/08/24 07:13:50;;;;;;;10.30;4.72;;;21.90;96.00;;;;;;5035689;28;20029;-80
2022/08/24 07:16:19;;;;;;;7.53;4.35;;;21.90;95.40;;;;;;5052028;28;20032;-80
2022/08/24 07:18:46;;;;;;;7.85;3.35;;;22.00;94.40;;;;;;5051131;28;20508;-80
2022/08/24 07:21:12;;;;;;;5.15;3.17;;;22.00;94.00;;;;;;5053212;28;20032;-81
2022/08/24 07:23:46;;;;;;;7.78;3.35;;;22.10;93.80;;;;;;5051878;28;20489;-80
2022/08/24 07:26:18;;;;;;;5.38;3.47;;;22.10;93.60;;;;;;5051812;28;20031;-80
2022/08/24 07:28:44;;;;;;;6.38;3.45;;;22.20;93.50;;;;;;5051856;28;20057;-80
2022/08/24 07:31:12;;;;;;;6.38;3.50;;;22.20;93.40;;;;;;5052075;28;20033;-80
2022/08/24 07:33:45;;;;;;;7.07;3.97;;;22.20;93.30;;;;;;5107711;22;20064;-84
2022/08/24 07:36:13;;;;;;;6.70;3.50;;;22.30;93.10;;;;;;5035544;28;20056;-84
2022/08/24 07:38:40;;;;;;;5.18;3.28;;;22.30;92.80;;;;;;5035183;28;20527;-84
2022/08/24 07:41:06;;;;;;;6.90;3.22;;;22.30;92.60;;;;;;5035044;28;20052;-84
2022/08/24 07:43:33;;;;;;;5.57;3.50;;;22.40;92.30;;;;;;5035401;28;20029;-84
2022/08/24 07:45:59;;;;;;;5.80;3.20;;;22.40;92.00;;;;;;5051626;28;20397;-84
2022/08/24 07:48:27;;;;;;;6.22;3.30;;;22.50;91.80;;;;;;5035021;28;20177;-84
2022/08/24 07:50:54;;;;;;;7.05;3.28;;;22.50;91.50;;;;;;5051642;28;20658;-84
2022/08/24 07:53:20;;;;;;;6.93;3.20;;;22.60;91.10;;;;;;5051597;28;20119;-84
2022/08/24 07:55:53;;;;;;;5.47;3.05;;;22.60;91.00;;;;;;5051322;28;20493;-84
2022/08/24 07:58:19;;;;;;;5.95;3.15;;;22.60;91.10;;;;;;5051538;28;20052;-84
2022/08/24 08:00:46;;;;;;;5.15;3.15;;;22.60;91.10;;;;;;5050979;28;20118;-84
2022/08/24 08:03:12;;;;;;;6.90;3.00;;;22.60;91.00;;;;;;5051434;28;20500;-84
2022/08/24 08:05:42;;;;;;;4.00;2.78;;;22.70;91.10;;;;;;5051156;28;20059;-84
2022/08/24 08:08:08;;;;;;;5.93;2.85;;;22.60;91.00;;;;;;5052662;28;20486;-84
2022/08/24 08:10:35;;;;;;;7.25;3.53;;;22.70;91.00;;;;;;5050977;28;20036;-84
2022/08/24 08:13:02;;;;;;;10.95;3.85;;;22.70;90.50;;;;;;5034891;28;20397;-84
2022/08/24 08:15:28;;;;;;;12.37;5.00;;;22.80;90.10;;;;;;5051134;28;20037;-84
2022/08/24 08:18:01;;;;;;;8.07;3.25;;;22.90;90.10;;;;;;5051148;28;20170;-84
2022/08/24 08:20:27;;;;;;;5.40;2.80;;;23.00;89.80;;;;;;5050864;28;20444;-84
2022/08/24 08:25:39;;;;;;;7.40;3.42;;;23.00;89.30;;;;;;5052158;28;20021;-84
2022/08/24 08:28:14;;;;;;;10.38;3.63;;;23.00;89.30;;;;;;5050869;28;20537;-84
2022/08/24 08:30:40;;;;;;;7.18;3.30;;;23.10;88.70;;;;;;5049677;28;20036;-84
2022/08/24 08:33:07;;;;;;;6.13;3.30;;;23.10;88.40;;;;;;5034323;28;20029;-84
2022/08/24 08:35:33;;;;;;;7.22;3.65;;;23.20;88.00;;;;;;5050797;28;20039;-84
2022/08/24 08:37:59;;;;;;;6.15;3.08;;;23.20;88.30;;;;;;5050753;28;20036;-84
2022/08/24 08:40:54;;;;;;;6.32;3.30;;;23.20;88.50;;;;;;5033849;28;20405;-84
2022/08/24 08:43:47;;;;;;;5.07;3.30;;;23.20;89.50;;;;;;5029663;28;20035;-84
2022/08/24 08:46:33;;;;;;;5.10;3.08;;;23.10;89.80;;;;;;5050952;28;20100;-84
2022/08/24 08:49:46;;;;;;;6.20;2.92;;;23.10;90.00;;;;;;5050609;28;20029;-84
2022/08/24 08:52:39;;;;;;;5.95;3.38;;;23.20;90.00;;;;;;5050761;28;20167;-84
2022/08/24 08:55:17;;;;;;;7.68;3.20;;;23.20;89.30;;;;;;5050864;28;20063;-84
2022/08/24 08:58:07;;;;;;;5.70;2.95;;;23.30;89.00;;;;;;5050554;28;20499;-84
2022/08/24 09:00:54;;;;;;;7.18;2.95;;;23.40;88.50;;;;;;5050269;28;20037;-84
2022/08/24 09:03:32;;;;;;;4.32;2.60;;;23.50;88.30;;;;;;5050623;28;20640;-84
2022/08/24 09:06:30;;;;;;;5.00;3.15;;;23.40;88.70;;;;;;5031561;28;20493;-84
2022/08/24 09:09:33;;;;;;;6.30;3.42;;;23.40;88.40;;;;;;5050026;28;20031;-84
2022/08/24 09:12:12;;;;;;;7.93;3.65;;;23.50;88.10;;;;;;5033617;28;20116;-84
2022/08/24 09:14:55;;;;;;;6.07;3.67;;;23.60;88.30;;;;;;5050024;28;20491;-84
2022/08/24 09:17:39;;;;;;;5.90;2.90;;;23.80;87.60;;;;;;5050990;28;20040;-84
2022/08/24 09:20:14;;;;;;;6.15;3.42;;;23.90;87.10;;;;;;5049531;28;20119;-84
2022/08/24 09:22:46;;;;;;;6.85;3.47;;;24.00;87.20;;;;;;5049988;28;20021;-84
2022/08/24 09:25:22;;;;;;;5.85;3.25;;;24.00;87.40;;;;;;5051070;28;20032;-84
2022/08/24 09:28:42;;;;;;;7.40;3.30;;;24.00;87.40;;;;;;5033563;28;20056;-84
2022/08/24 09:31:25;;;;;;;6.10;2.88;;;24.00;86.90;;;;;;4953867;28;20066;-84
2022/08/24 09:34:06;;;;;;;3.78;2.42;;;24.00;86.60;;;;;;4969823;28;20042;-84
2022/08/24 09:36:44;;;;;;;5.47;3.10;;;24.00;86.40;;;;;;5025515;28;20120;-84
2022/08/24 09:39:31;;;;;;;9.88;2.85;;;24.00;87.20;;;;;;5051147;28;20110;-84
2022/08/24 09:42:17;;;;;;;5.95;2.88;;;24.00;86.50;;;;;;5050461;28;20033;-84
2022/08/24 09:44:43;;;;;;;4.60;2.80;;;24.10;86.30;;;;;;5050795;28;20029;-84
2022/08/24 09:47:42;;;;;;;4.95;2.78;;;24.10;86.40;;;;;;5050371;28;20503;-84
2022/08/24 09:50:33;;;;;;;5.03;2.65;;;24.10;87.10;;;;;;5049502;28;20025;-84
2022/08/24 09:53:11;;;;;;;5.78;2.33;;;24.10;87.70;;;;;;5050653;28;20467;-84
2022/08/24 09:55:58;;;;;;;6.15;2.30;;;24.20;86.30;;;;;;5050811;28;20036;-84
2022/08/24 09:58:33;;;;;;;6.75;2.70;;;24.20;87.50;;;;;;5050889;28;20025;-84
2022/08/24 10:01:11;;;;;;;5.57;2.40;;;24.20;90.20;;;;;;5049298;28;20516;-84
2022/08/24 10:04:06;;;;;;;3.90;2.10;;;24.20;88.70;;;;;;5050976;28;20029;-83
2022/08/24 10:06:49;;;;;;;7.50;2.58;;;24.20;86.90;;;;;;5050760;28;20026;-84
2022/08/24 10:09:41;;;;;;;5.43;2.70;;;24.30;86.60;;;;;;5049219;28;20044;-84
2022/08/24 10:12:34;;;;;;;6.80;1.85;;;24.50;85.40;;;;;;5050437;28;20029;-84
2022/08/24 10:15:06;;;;;;;4.35;2.00;;;24.60;84.70;;;;;;5050678;28;20115;-84
2022/08/24 10:17:37;;;;;;;4.88;2.10;;;24.80;84.60;;;;;;5050321;28;20060;-84
2022/08/24 10:20:19;;;;;;;3.25;2.00;;;25.00;84.00;;;;;;5050229;28;20025;-84
2022/08/24 10:23:02;;;;;;;5.43;2.67;;;25.00;84.70;;;;;;5050442;28;20021;-84
2022/08/24 10:25:39;;;;;;;6.63;2.55;;;25.00;84.60;;;;;;5049282;28;20036;-84
2022/08/24 10:28:39;;;;;;;4.25;2.42;;;25.10;83.70;;;;;;5050308;28;20025;-84
2022/08/24 10:31:08;;;;;;;4.28;2.00;;;25.20;83.80;;;;;;5050245;28;20033;-84
2022/08/24 10:34:13;;;;;;;3.83;2.03;;;25.20;83.80;;;;;;5050375;28;20040;-84
2022/08/24 10:37:07;;;;;;;4.50;1.73;;;25.30;83.80;;;;;;5050346;28;20040;-84
2022/08/24 10:39:50;;;;;;;7.35;2.83;;;25.10;85.50;;;;;;5050355;28;20061;-84
2022/08/24 10:45:32;;;;;;;4.60;2.17;;;25.10;83.70;;;;;;5050561;28;20029;-84
2022/08/24 10:48:28;;;;;;;4.30;2.33;;;25.20;83.00;;;;;;5050723;28;20025;-84
2022/08/24 10:51:10;;;;;;;4.43;2.30;;;25.20;86.00;;;;;;5050582;28;20033;-85
2022/08/24 10:53:36;;;;;;;5.28;2.30;;;25.00;87.90;;;;;;5051017;28;20037;-84
2022/08/24 10:56:07;;;;;;;4.90;1.90;;;25.00;85.20;;;;;;5052793;28;20029;-84
2022/08/24 10:58:42;;;;;;;3.05;1.95;;;25.10;83.30;;;;;;5052858;28;20040;-84
2022/08/24 11:01:15;;;;;;;3.85;2.40;;;25.10;83.40;;;;;;5052618;28;20033;-84
2022/08/24 11:03:56;;;;;;;6.68;2.20;;;25.10;83.70;;;;;;5052673;28;20037;-85
2022/08/24 11:06:25;;;;;;;3.17;2.00;;;25.10;86.20;;;;;;5052462;28;20470;-85
2022/08/24 11:08:55;;;;;;;7.45;2.70;;;25.10;83.80;;;;;;5053484;28;20072;-84
2022/08/24 11:11:28;;;;;;;10.20;2.60;;;25.20;82.50;;;;;;5054188;28;20040;-84
2022/08/24 11:13:59;;;;;;;5.28;2.30;;;25.30;82.30;;;;;;5052676;28;20082;-85
2022/08/24 11:16:29;;;;;;;4.40;1.98;;;25.50;81.30;;;;;;5052129;28;20416;-84
2022/08/24 11:18:58;;;;;;;7.15;2.70;;;25.50;81.90;;;;;;5052181;28;20037;-84
2022/08/24 11:21:38;;;;;;;;;;;25.60;81.30;;;;;;5053994;28;20032;-84
2022/08/24 11:24:24;;;;;;;6.93;2.65;;;25.60;80.80;;;;;;5053483;28;20288;-84
2022/08/24 11:26:58;;;;;;;6.15;2.30;;;25.70;80.80;;;;;;5053363;28;20025;-84
2022/08/24 11:29:48;;;;;;;7.10;2.72;;;25.80;80.50;;;;;;5053084;28;20061;-84
2022/08/24 11:32:32;;;;;;;7.10;3.47;;;25.90;80.50;;;;;;5053464;28;20127;-84
2022/08/24 11:35:13;;;;;;;6.25;3.60;;;26.00;79.60;;;;;;5051834;28;20033;-84
2022/08/24 11:37:39;;;;;;;7.95;3.20;;;26.00;80.90;;;;;;5053066;28;20029;-84
2022/08/24 11:40:07;;;;;;;5.75;2.60;;;25.90;80.80;;;;;;5053071;28;20043;-84
2022/08/24 11:42:39;;;;;;;5.95;2.95;;;25.80;84.10;;;;;;5053204;28;20531;-84
2022/08/24 11:45:24;;;;;;;7.55;3.47;;;25.70;84.80;;;;;;5051910;28;20040;-84
2022/08/24 11:48:06;;;;;;;8.35;3.33;;;25.50;83.50;;;;;;5052724;28;20037;-84
2022/08/24 11:50:39;;;;;;;7.90;3.00;;;25.60;80.40;;;;;;5051761;28;20128;-84
2022/08/24 11:53:09;;;;;;;6.15;2.47;;;25.80;78.90;;;;;;5053283;28;20104;-84
2022/08/24 11:55:38;;;;;;;4.72;2.28;;;26.00;78.80;;;;;;5053121;28;20021;-84
2022/08/24 11:58:36;;;;;;;4.50;2.28;;;26.00;79.30;;;;;;5052916;28;20505;-84
2022/08/24 12:01:35;;;;;;;5.65;2.15;;;26.00;78.90;;;;;;5052863;28;20069;-84
2022/08/24 12:04:15;;;;;;;6.85;3.15;;;26.00;79.80;;;;;;5037453;28;20041;-84
2022/08/24 12:06:41;;;;;;;3.70;1.67;;;26.00;79.30;;;;;;5052494;28;20065;-84
2022/08/24 12:09:40;;;;;;;5.28;2.45;;;26.20;77.90;;;;;;5052533;28;20021;-84
2022/08/24 12:12:15;;;;;;;8.88;3.80;;;26.30;77.90;;;;;;5052559;28;20474;-84
2022/08/24 12:14:59;;;;;;;7.35;3.42;;;26.50;77.00;;;;;;5052528;28;20211;-84
2022/08/24 12:17:24;;;;;;;8.68;4.30;;;26.50;76.90;;;;;;5052326;28;20566;-84
2022/08/24 12:20:09;;;;;;;8.13;3.80;;;26.60;76.60;;;;;;5052401;28;20104;-84
2022/08/24 12:22:35;;;;;;;6.32;3.92;;;26.70;76.20;;;;;;5051318;28;20044;-84
2022/08/24 12:26:00;;;;;;;9.00;4.80;;;26.70;77.10;;;;;;5052337;28;20577;-82
2022/08/24 12:27:50;;;;;;;9.65;4.25;;;26.60;79.70;;;;;;5052150;28;20021;-84
2022/08/24 12:30:16;;;;;;;7.10;2.90;;;26.50;77.40;;;;;;5050864;28;20068;-84
2022/08/24 12:32:58;;;;;;;8.63;3.30;;;26.60;76.70;;;;;;5052256;28;20029;-84
2022/08/24 12:35:30;;;;;;;5.22;2.85;;;26.70;76.30;;;;;;5052146;28;20071;-84
2022/08/24 12:38:07;;;;;;;7.70;3.45;;;26.80;75.60;;;;;;5051978;28;20021;-84
2022/08/24 12:41:02;;;;;;;5.85;3.47;;;26.90;75.90;;;;;;5052094;28;20178;-84
2022/08/24 12:43:48;;;;;;;5.10;2.72;;;27.00;75.40;;;;;;5051940;28;20108;-84
2022/08/24 12:46:19;;;;;;;9.25;5.95;;;26.80;77.20;;;;;;5051570;28;20025;-84
2022/08/24 12:48:52;;;;;;;10.48;3.70;;;26.80;75.90;;;;;;5051735;28;20040;-84
2022/08/24 12:51:50;;;;;;;7.80;3.35;;;26.90;75.80;;;;;;5050634;28;20036;-84
2022/08/24 12:54:41;;;;;;;11.77;6.07;;;27.00;75.40;;;;;;5051605;28;20090;-84
2022/08/24 12:57:24;;;;;;;6.50;4.00;;;27.10;75.50;;;;;;5051531;28;20506;-84
2022/08/24 12:59:56;;;;;;;8.52;5.50;;;27.30;75.00;;;;;;5051723;28;20025;-84
2022/08/24 13:02:23;;;;;;;9.40;5.72;;;27.40;74.60;;;;;;5051750;28;20032;-84
2022/08/24 13:04:48;;;;;;;8.13;4.70;;;27.40;74.70;;;;;;5050220;28;20033;-84
2022/08/24 13:07:20;;;;;;;5.35;3.70;;;27.30;75.00;;;;;;5051368;28;20086;-84
2022/08/24 13:09:47;;;;;;;5.90;3.70;;;27.30;74.70;;;;;;5051275;28;20035;-83
2022/08/24 13:12:42;;;;;;;6.38;3.25;;;27.30;75.20;;;;;;5050254;28;20090;-83
2022/08/24 13:15:25;;;;;;;5.43;2.40;;;27.30;74.70;;;;;;5051275;28;20027;-83
2022/08/24 13:17:52;;;;;;;6.57;3.25;;;27.30;74.60;;;;;;5050356;28;20098;-83
2022/08/24 13:20:20;;;;;;;5.13;2.80;;;27.30;74.60;;;;;;5050924;28;20039;-83
2022/08/24 13:23:09;;;;;;;7.43;5.00;;;27.10;79.40;;;;;;5051296;28;20032;-83
2022/08/24 13:25:57;;;;;;;7.38;3.97;;;27.00;75.70;;;;;;5051115;28;20025;-83